Time;durP1;ratioP1;P1;durP2;ratioP2;P2;SDS_P1;SDS_P2;PMS_P1;PMS_P2;Temp;Humidity;BMP_temperature;BMP_pressure;BME280_temperature;BME280_humidity;BME280_pressure;Samples;Min_cycle;Max_cycle;Signal;HPM_P1;HPM_P2
2020/12/13 00:00:40;;;;;;;33.25;17.55;;;;;;;13.95;59.34;100559.22;5061796;28;20045;-93
2020/12/13 00:03:06;;;;;;;27.88;17.20;;;;;;;14.03;59.67;100556.00;5061881;28;20021;-89
2020/12/13 00:05:31;;;;;;;;;;;;;;;13.93;59.71;100553.00;5063113;28;20029;-90
2020/12/13 00:07:56;;;;;;;29.30;15.45;;;;;;;13.97;59.70;100549.97;5063170;28;20550;-92
2020/12/13 00:10:22;;;;;;;29.33;17.20;;;;;;;13.41;61.40;100554.59;5061015;28;20055;-92
2020/12/13 00:12:54;;;;;;;;;;;;;;;13.40;61.78;100558.25;5070468;22;20036;-93
2020/12/13 00:15:19;;;;;;;30.45;19.67;;;;;;;13.61;60.99;100546.00;5081485;28;19923;-94
2020/12/13 00:17:47;;;;;;;;;;;;;;;13.57;61.06;100541.75;5082159;28;20029;-89
2020/12/13 00:20:14;;;;;;;37.80;20.17;;;;;;;13.65;61.14;100546.69;5080825;28;19912;-92
2020/12/13 00:22:47;;;;;;;33.90;19.08;;;;;;;13.98;59.75;100559.03;5081767;28;20050;-91
2020/12/13 00:25:25;;;;;;;30.05;17.63;;;;;;;14.03;59.69;100556.88;5081259;28;20025;-92
2020/12/13 00:28:06;;;;;;;40.05;20.95;;;;;;;14.11;59.59;100565.38;5081141;28;20075;-91
2020/12/13 00:30:40;;;;;;;35.83;19.92;;;;;;;13.92;60.01;100567.56;5064548;28;20028;-90
2020/12/13 00:35:52;;;;;;;43.33;22.45;;;;;;;13.33;61.52;100573.16;5108081;22;20053;-89
2020/12/13 00:38:21;;;;;;;41.30;22.55;;;;;;;13.58;61.25;100577.94;5080843;28;20032;-92
2020/12/13 00:40:51;;;;;;;39.90;21.20;;;;;;;13.58;61.18;100572.50;5060945;28;20033;-93
2020/12/13 00:43:27;;;;;;;34.97;19.95;;;;;;;13.86;60.08;100571.59;5063054;28;20025;-91
2020/12/13 00:45:52;;;;;;;38.25;20.25;;;;;;;13.92;59.99;100575.72;5061014;28;20032;-89
2020/12/13 00:48:18;;;;;;;36.25;20.15;;;;;;;13.96;59.92;100577.28;5061935;28;20052;-91
2020/12/13 00:50:43;;;;;;;29.45;19.40;;;;;;;13.97;59.84;100585.34;5060952;28;20028;-89
2020/12/13 00:53:24;;;;;;;;;;;;;;;13.97;59.82;100581.75;5064691;28;20377;-93
2020/12/13 00:55:49;;;;;;;38.55;19.27;;;;;;;14.03;60.07;100585.94;5065957;28;19912;-92
2020/12/13 00:58:15;;;;;;;;;;;;;;;13.95;59.93;100586.41;5204041;22;20036;-94
2020/12/13 01:00:41;;;;;;;32.67;18.08;;;;;;;14.11;59.84;100586.28;5067242;28;19947;-92
2020/12/13 01:03:06;;;;;;;31.38;18.10;;;;;;;14.13;59.69;100587.94;5066733;28;20044;-91
2020/12/13 01:05:49;;;;;;;31.73;18.40;;;;;;;14.17;59.63;100604.91;5081297;28;20039;-89
2020/12/13 01:08:14;;;;;;;29.00;17.63;;;;;;;14.23;59.67;100598.19;5064148;28;20033;-91
2020/12/13 01:10:39;;;;;;;;;;;;;;;13.98;60.07;100603.41;5064880;28;20029;-92
2020/12/13 01:13:14;;;;;;;31.58;17.88;;;;;;;14.16;59.65;100609.47;5065222;28;20584;-93
2020/12/13 01:15:50;;;;;;;32.28;18.20;;;;;;;13.95;60.09;100621.75;5064413;28;20033;-93
2020/12/13 01:18:16;;;;;;;34.67;18.60;;;;;;;13.86;59.68;100616.94;5062151;28;20021;-91
2020/12/13 01:20:41;;;;;;;;;;;;;;;13.87;59.57;100621.41;5059139;28;20029;-91
2020/12/13 01:23:08;;;;;;;33.58;19.40;;;;;;;13.22;61.38;100622.75;5060936;28;19925;-91
2020/12/13 01:25:33;;;;;;;43.33;21.77;;;;;;;12.88;62.58;100624.84;5060525;28;20036;-93
2020/12/13 01:27:59;;;;;;;34.63;21.52;;;;;;;13.36;61.30;100632.78;5062413;28;20028;-89
2020/12/13 01:30:24;;;;;;;;;;;;;;;13.44;60.79;100641.34;5047303;28;20033;-91
2020/12/13 01:32:53;;;;;;;82.10;38.60;;;;;;;13.71;59.71;100643.25;5060128;28;19983;-89
2020/12/13 01:36:27;;;;;;;64.63;32.83;;;;;;;13.83;58.82;100640.63;5061177;28;20082;-92
2020/12/13 02:47:17;;;;;;;30.10;18.58;;;;;;;13.89;59.00;100692.88;6107117;23;20026;31
2020/12/13 02:50:42;;;;;;;26.65;15.55;;;;;;;13.87;59.00;100702.97;4935937;29;20052;-92
2020/12/13 03:59:04;;;;;;;56.42;20.08;;;;;;;12.72;62.52;100780.47;5382421;23;20054;-92
2020/12/13 04:16:38;;;;;;;;;;;;;;;;;;;;;
2020/12/13 04:19:58;;;;;;;34.15;17.58;;;;;;;12.86;61.34;100787.84;4787519;29;20061;-91
2020/12/13 04:22:41;;;;;;;30.65;17.48;;;;;;;13.07;60.91;100790.25;4794705;29;20038;-91
2020/12/13 04:25:31;;;;;;;28.13;17.73;;;;;;;13.06;61.11;100797.53;4845853;29;20096;-91
2020/12/13 04:28:18;;;;;;;29.65;17.73;;;;;;;13.00;60.84;100800.59;4854782;29;20037;-90
2020/12/13 04:31:28;;;;;;;;;;;;;;;;;;;;;
2020/12/13 04:35:02;;;;;;;26.83;16.02;;;;;;;12.60;62.54;100802.91;4862859;29;20029;-91
2020/12/13 04:38:40;;;;;;;;;;;;;;;;;;;;;
2020/12/13 04:53:40;;;;;;;;;;;;;;;;;;;;;
2020/12/13 04:57:00;;;;;;;26.75;15.43;;;;;;;12.51;63.32;100808.84;4802268;29;20055;-92
2020/12/13 04:59:54;;;;;;;28.35;15.15;;;;;;;12.54;63.83;100824.94;4790430;29;20047;-91
2020/12/13 05:03:22;;;;;;;;;;;;;;;;;;;;;
2020/12/13 05:20:34;;;;;;;25.58;13.88;;;;;;;12.62;64.59;100814.56;4848233;29;20030;-91
2020/12/13 05:24:01;;;;;;;;;;;;;;;;;;;;;
2020/12/13 05:26:37;;;;;;;;;;;;;;;;;;;;;
2020/12/13 05:29:29;;;;;;;24.93;13.37;;;;;;;13.27;63.45;100824.38;4808837;29;20039;-90
2020/12/13 05:32:54;;;;;;;24.98;13.27;;;;;;;13.42;62.43;100826.22;4791120;29;20046;-91
2020/12/13 05:35:48;;;;;;;;;;;;;;;;;;;;;
2020/12/13 05:38:54;;;;;;;22.88;13.05;;;;;;;13.52;61.64;100828.38;4808749;29;20065;-90
2020/12/13 05:55:56;;;;;;;26.73;14.05;;;;;;;13.47;62.02;100837.69;4813599;29;20425;-90
2020/12/13 06:12:13;;;;;;;32.90;15.25;;;;;;;12.77;63.80;100851.69;4839258;23;20504;-91
2020/12/13 06:42:41;;;;;;;;;;;;;;;;;;;;;
2020/12/13 06:50:55;;;;;;;31.65;13.70;;;;;;;11.99;64.97;100885.81;4863910;23;20053;-91
2020/12/13 07:03:06;;;;;;;30.92;14.40;;;;;;;12.34;62.67;100883.91;4884195;23;20057;-86
2020/12/13 07:05:58;;;;;;;33.83;14.75;;;;;;;11.96;63.83;100877.84;4828318;29;20034;-90
2020/12/13 07:08:25;;;;;;;30.25;14.32;;;;;;;11.96;63.71;100888.69;4828755;29;20038;-90
2020/12/13 07:10:53;;;;;;;31.98;14.65;;;;;;;12.26;62.88;100890.69;4858996;29;20034;-90
2020/12/13 07:13:24;;;;;;;28.63;13.48;;;;;;;12.28;62.47;100889.66;4858847;29;20075;-90
2020/12/13 07:16:40;;;;;;;35.25;13.68;;;;;;;12.34;62.54;100894.75;4860388;29;20037;-92
2020/12/13 07:19:12;;;;;;;28.35;13.32;;;;;;;12.18;63.34;100900.16;4805336;23;20048;-90
2020/12/13 07:36:03;;;;;;;22.77;10.52;;;;;;;12.34;62.92;100913.75;5564595;23;20058;-92
2020/12/13 07:38:36;;;;;;;27.98;10.05;;;;;;;12.09;63.73;100916.88;4848445;29;20051;-93
2020/12/13 07:41:12;;;;;;;24.35;11.07;;;;;;;12.28;62.90;100921.34;4847505;29;20061;-92
2020/12/13 07:43:49;;;;;;;28.38;10.98;;;;;;;11.85;64.30;100924.44;4831700;29;20054;-94
2020/12/13 07:46:15;;;;;;;24.40;10.60;;;;;;;11.63;64.35;100930.97;4849312;29;20492;-93
2020/12/13 07:48:41;;;;;;;21.20;10.77;;;;;;;11.35;65.43;100924.25;4850651;29;20025;-93
2020/12/13 07:51:10;;;;;;;31.45;10.52;;;;;;;11.37;65.52;100928.69;4848456;29;20033;-94
2020/12/13 07:53:40;;;;;;;23.88;10.85;;;;;;;11.35;64.95;100931.47;4847538;29;20132;-93
2020/12/13 07:56:30;;;;;;;27.58;10.80;;;;;;;11.63;63.71;100939.09;4852678;29;20059;-93
2020/12/13 07:59:12;;;;;;;25.08;11.38;;;;;;;11.60;63.75;100946.50;4836420;29;20041;-94
2020/12/13 08:02:29;;;;;;;34.92;10.60;;;;;;;11.30;64.75;100949.78;4830515;29;20049;-95
2020/12/13 08:08:36;;;;;;;24.23;11.13;;;;;;;11.37;64.33;100964.78;4943633;23;20148;-92
2020/12/13 08:13:29;;;;;;;29.48;12.82;;;;;;;11.20;64.84;100970.13;4846026;29;20634;-91
2020/12/13 08:16:02;;;;;;;27.02;12.60;;;;;;;11.30;64.76;100972.31;4828476;29;20038;-90
2020/12/13 08:18:28;;;;;;;27.70;12.95;;;;;;;11.63;63.52;100970.75;4845481;29;20026;-90
2020/12/13 08:20:55;;;;;;;23.27;13.20;;;;;;;11.55;63.62;100981.97;4831413;29;20485;-89
2020/12/13 08:23:24;;;;;;;28.63;12.40;;;;;;;10.98;65.22;100982.88;4829188;29;20033;-89
2020/12/13 08:25:49;;;;;;;27.13;13.75;;;;;;;10.97;65.21;100981.09;4844817;29;20038;-88
2020/12/13 08:28:22;;;;;;;37.65;14.40;;;;;;;11.02;65.75;100993.56;4828346;29;20030;-89
2020/12/13 08:31:22;;;;;;;36.50;13.30;;;;;;;11.20;64.99;100987.25;4827985;29;20034;-93
2020/12/13 08:33:47;;;;;;;21.90;10.05;;;;;;;11.10;65.09;100989.53;4843800;29;20041;-89
2020/12/13 08:36:17;;;;;;;25.65;10.75;;;;;;;11.59;63.34;100988.09;4843508;29;20065;-89
2020/12/13 08:45:57;;;;;;;22.15;8.93;;;;;;;11.74;63.02;100990.03;4878190;23;20733;-96
2020/12/13 08:48:26;;;;;;;22.63;8.55;;;;;;;11.42;64.56;101002.50;4832754;29;20058;-92
2020/12/13 08:51:09;;;;;;;21.85;9.38;;;;;;;11.87;62.92;100995.75;4834577;29;20086;-91
2020/12/13 08:53:58;;;;;;;17.27;6.72;;;;;;;11.55;63.93;100995.53;4832665;29;20051;-93
2020/12/13 08:56:34;;;;;;;32.15;9.07;;;;;;;12.25;62.06;101001.06;4832568;29;20049;-89
2020/12/13 08:59:15;;;;;;;;;;;;;;;;;;;;;
2020/12/13 09:01:52;;;;;;;18.92;6.88;;;;;;;12.06;62.40;101003.81;4850092;29;20109;-90
2020/12/13 09:04:19;;;;;;;;;;;;;;;11.81;63.77;101006.88;4830802;29;20029;-91
2020/12/13 09:06:58;;;;;;;19.03;8.23;;;;;;;12.18;61.83;101003.22;4830443;29;19916;-87
2020/12/13 09:09:30;;;;;;;19.17;7.20;;;;;;;12.28;62.20;101009.03;4845379;29;20034;-90
2020/12/13 09:11:58;;;;;;;18.27;6.72;;;;;;;11.94;62.98;101015.31;4829222;29;20472;-86
2020/12/13 09:14:34;;;;;;;21.38;7.30;;;;;;;11.95;62.96;101011.66;4830142;29;20141;-87
2020/12/13 09:17:00;;;;;;;18.00;6.40;;;;;;;11.63;63.55;101023.09;4853690;29;20037;-89
2020/12/13 09:19:26;;;;;;;;;;;;;;;12.17;61.47;101017.72;4848518;29;20070;-88
2020/12/13 09:21:54;;;;;;;26.40;7.88;;;;;;;12.51;61.45;101021.38;4848237;29;19916;-89
2020/12/13 09:24:22;;;;;;;17.13;7.40;;;;;;;12.20;61.58;101027.56;4847351;29;20030;-89
2020/12/13 09:27:01;;;;;;;24.25;8.10;;;;;;;11.85;62.71;101022.03;4849098;29;20034;-88
2020/12/13 09:29:28;;;;;;;17.48;8.13;;;;;;;12.01;63.00;101025.75;4828859;29;20050;-89
2020/12/13 09:31:56;;;;;;;18.75;8.48;;;;;;;11.96;62.66;101026.97;4828975;29;20033;-90
2020/12/13 09:34:22;;;;;;;20.77;7.72;;;;;;;12.20;61.65;101030.25;4844701;29;20117;-91
2020/12/13 09:36:49;;;;;;;24.30;7.78;;;;;;;11.67;63.27;101035.56;4829595;29;20164;-91
2020/12/13 09:39:14;;;;;;;18.35;8.10;;;;;;;12.13;62.38;101034.25;4852153;29;20073;-89
2020/12/13 09:41:40;;;;;;;29.50;6.88;;;;;;;11.58;63.91;101029.69;4830099;29;20030;-87
2020/12/13 09:44:05;;;;;;;;;;;;;;;11.84;63.24;101026.56;4845985;29;20121;-91
2020/12/13 09:46:30;;;;;;;17.63;6.80;;;;;;;12.47;61.38;101029.75;4849870;29;20378;-93
2020/12/13 09:48:56;;;;;;;17.27;6.55;;;;;;;11.94;62.40;101035.19;4874398;29;20032;-93
2020/12/13 09:51:22;;;;;;;12.07;6.68;;;;;;;11.89;62.69;101038.06;4847375;29;20025;-92
2020/12/13 09:53:50;;;;;;;15.15;6.43;;;;;;;11.82;62.69;101033.03;4847556;29;20062;-92
2020/12/13 09:58:41;;;;;;;16.85;6.68;;;;;;;12.73;59.92;101040.13;4874610;23;20118;-90
2020/12/13 10:01:08;;;;;;;18.05;6.05;;;;;;;12.49;60.86;101036.88;4872042;23;20489;-93
2020/12/13 10:03:42;;;;;;;14.85;5.57;;;;;;;12.01;62.27;101028.47;4858319;29;20033;-93
2020/12/13 10:09:23;;;;;;;16.75;6.55;;;;;;;12.76;59.80;101029.09;4882986;29;20033;-93
2020/12/13 10:11:49;;;;;;;;;;;;;;;12.39;61.06;101027.44;4880431;24;20060;-92
2020/12/13 10:14:15;;;;;;;20.30;6.50;;;;;;;12.17;61.50;101030.41;4836363;29;19920;-89
2020/12/13 10:16:41;;;;;;;;;;;;;;;12.29;60.63;101037.91;4853770;29;20069;-89
2020/12/13 10:19:07;;;;;;;14.70;5.57;;;;;;;12.54;60.22;101032.06;4871537;29;19920;-91
2020/12/13 10:21:35;;;;;;;16.80;5.30;;;;;;;12.02;61.38;101032.06;4846165;29;20034;-90
2020/12/13 10:24:04;;;;;;;17.55;6.93;;;;;;;12.30;60.53;101034.22;4844381;29;20025;-90
2020/12/13 10:26:32;;;;;;;14.23;5.35;;;;;;;12.11;61.51;101028.00;4845996;29;20053;-88
2020/12/13 10:28:59;;;;;;;15.70;5.65;;;;;;;12.13;60.91;101024.25;4848248;29;20041;-92
2020/12/13 10:31:35;;;;;;;15.05;5.45;;;;;;;12.18;60.78;101024.03;4853843;29;20022;-89
2020/12/13 10:34:16;;;;;;;10.77;4.72;;;;;;;11.88;62.04;101016.44;4851428;29;20073;-93
2020/12/13 10:36:43;;;;;;;12.82;4.78;;;;;;;11.74;62.39;101025.28;4868226;29;20026;-91
2020/12/13 10:39:12;;;;;;;11.68;5.15;;;;;;;11.74;62.03;101022.56;4859124;24;20093;-93
2020/12/13 10:44:19;;;;;;;16.90;5.07;;;;;;;11.82;61.45;101017.66;4852149;29;20061;-92
2020/12/13 10:46:53;;;;;;;11.00;4.72;;;;;;;11.66;62.03;101030.22;4850276;23;20054;-94
2020/12/13 10:49:19;;;;;;;16.17;5.07;;;;;;;11.35;63.08;101029.88;4850349;29;20026;-90
2020/12/13 10:51:45;;;;;;;15.27;4.70;;;;;;;11.18;63.44;101021.66;4850433;29;20094;-92
2020/12/13 10:54:12;;;;;;;20.95;7.00;;;;;;;11.25;63.42;101016.84;4852599;29;20042;-91
2020/12/13 10:56:37;;;;;;;15.80;6.10;;;;;;;11.57;62.26;101025.25;4853819;29;20025;-90
2020/12/13 10:59:03;;;;;;;12.07;4.80;;;;;;;11.41;62.45;101025.09;4851562;29;20045;-93
2020/12/13 11:01:30;;;;;;;;;;;;;;;11.46;62.61;101025.78;4862758;24;20053;-88
2020/12/13 11:04:03;;;;;;;11.20;5.07;;;;;;;11.77;61.27;101024.25;4848523;29;19916;-91
2020/12/13 11:06:30;;;;;;;12.85;5.18;;;;;;;11.51;61.95;101019.16;4848211;29;20030;-91
2020/12/13 11:08:55;;;;;;;18.75;4.68;;;;;;;11.28;62.61;101023.00;4848401;29;20078;-89
2020/12/13 11:11:21;;;;;;;25.98;5.57;;;;;;;11.70;60.99;101029.13;4866688;29;20049;-88
2020/12/13 11:13:46;;;;;;;;;;;;;;;11.35;62.02;101031.69;4848991;29;20040;-92
2020/12/13 11:16:12;;;;;;;11.57;4.78;;;;;;;10.84;62.97;101028.66;4838589;29;19928;-88
2020/12/13 11:18:37;;;;;;;17.77;5.67;;;;;;;10.97;63.04;101013.59;4845538;29;20442;-90
2020/12/13 11:21:03;;;;;;;17.60;6.00;;;;;;;11.17;63.31;101012.66;4829212;29;20307;-89
2020/12/13 11:23:29;;;;;;;13.45;5.10;;;;;;;11.58;61.67;101014.34;4845612;29;20057;-92
2020/12/13 11:25:54;;;;;;;13.98;5.45;;;;;;;11.36;62.34;101009.06;4830343;29;20496;-89
2020/12/13 11:28:19;;;;;;;22.08;5.55;;;;;;;11.13;62.63;101013.75;4845909;29;20076;-91
2020/12/13 11:30:45;;;;;;;;;;;;;;;11.31;62.34;101011.13;4828909;29;20033;-87
2020/12/13 11:33:10;;;;;;;13.73;5.35;;;;;;;11.60;60.91;101015.13;4859791;29;19964;-89
2020/12/13 11:35:35;;;;;;;;;;;;;;;11.78;61.06;101010.63;4848696;29;20033;-88
2020/12/13 11:38:12;;;;;;;21.88;6.50;;;;;;;11.76;61.46;101017.06;4869675;29;19983;-90
2020/12/13 11:40:37;;;;;;;;;;;;;;;11.60;61.42;101009.72;4853794;29;20120;-89
2020/12/13 11:43:04;;;;;;;16.58;5.78;;;;;;;11.83;61.32;101024.81;4853417;29;20098;-87
2020/12/13 11:45:37;;;;;;;19.98;5.50;;;;;;;11.76;61.69;101017.97;4853125;29;20030;-92
2020/12/13 11:48:02;;;;;;;13.38;5.43;;;;;;;12.26;59.02;101010.94;4855702;29;20089;-87
2020/12/13 11:50:28;;;;;;;19.50;4.35;;;;;;;12.02;59.64;101013.09;4832178;29;20097;-88
2020/12/13 11:52:54;;;;;;;16.05;5.95;;;;;;;12.00;60.74;101013.19;4830256;29;20033;-86
2020/12/13 11:55:21;;;;;;;18.08;5.32;;;;;;;12.12;59.72;101005.34;4831406;29;20094;-87
2020/12/13 11:57:47;;;;;;;20.85;5.55;;;;;;;12.20;58.69;101008.56;4830084;29;20025;-87
2020/12/13 12:00:21;;;;;;;13.95;5.30;;;;;;;12.46;58.12;101001.75;4830912;29;20034;-91
2020/12/13 12:02:46;;;;;;;20.15;5.28;;;;;;;12.96;57.37;100993.69;4832355;29;20046;-88
2020/12/13 12:05:12;;;;;;;17.55;5.50;;;;;;;13.00;57.11;101001.56;4830333;29;20512;-86
2020/12/13 12:07:37;;;;;;;14.50;5.13;;;;;;;12.64;58.24;100997.19;4851078;29;20484;-90
2020/12/13 12:10:03;;;;;;;;;;;;;;;12.83;58.12;100998.88;4837515;29;20102;-91
2020/12/13 12:12:31;;;;;;;17.77;5.38;;;;;;;12.25;59.73;100992.91;4839015;29;20332;-92
2020/12/13 12:15:00;;;;;;;10.93;4.20;;;;;;;12.13;59.43;100991.72;4826226;29;20038;-91
2020/12/13 12:17:25;;;;;;;13.50;4.00;;;;;;;12.09;59.94;100995.53;4835985;29;20069;-86
2020/12/13 12:19:52;;;;;;;15.65;5.07;;;;;;;12.26;59.26;100989.25;4838034;29;20025;-90
2020/12/13 12:22:24;;;;;;;14.93;4.95;;;;;;;12.21;59.62;100991.31;4853576;29;20046;-87
2020/12/13 12:24:50;;;;;;;12.63;5.28;;;;;;;12.38;59.14;100987.72;4856406;29;20055;-89
2020/12/13 12:27:17;;;;;;;16.40;5.38;;;;;;;12.16;59.41;100987.97;4825060;29;20053;-89
2020/12/13 12:29:42;;;;;;;;;;;;;;;11.99;60.34;100992.44;4855520;29;20040;-88
2020/12/13 12:32:07;;;;;;;14.10;5.00;;;;;;;11.47;61.14;100995.00;4838997;29;19920;-90
2020/12/13 12:34:33;;;;;;;20.88;6.22;;;;;;;12.20;59.83;100981.44;4839647;29;20038;-89
2020/12/13 12:36:59;;;;;;;15.07;4.20;;;;;;;11.97;59.27;100983.50;4840546;29;20026;-88
2020/12/13 12:39:25;;;;;;;;;;;;;;;11.74;59.95;100972.91;4840074;29;20026;-89
2020/12/13 12:41:51;;;;;;;12.32;4.10;;;;;;;11.98;59.84;100985.25;4840256;29;19916;-87
2020/12/13 12:44:16;;;;;;;;;;;;;;;12.02;59.35;100975.13;4837175;29;20034;-89
2020/12/13 12:46:42;;;;;;;14.55;3.95;;;;;;;12.08;59.19;100968.50;4836362;29;19920;-88
2020/12/13 12:49:10;;;;;;;19.27;3.85;;;;;;;11.66;60.27;100973.31;4836403;29;20041;-89
2020/12/13 12:51:35;;;;;;;13.65;3.65;;;;;;;11.78;59.63;100966.38;4837735;29;20106;-88
2020/12/13 12:54:01;;;;;;;16.08;4.55;;;;;;;11.47;60.82;100962.50;4837928;29;20030;-90
2020/12/13 12:56:27;;;;;;;22.88;5.50;;;;;;;11.87;59.76;100965.91;4836037;29;20034;-86
2020/12/13 12:59:06;;;;;;;14.48;3.70;;;;;;;11.70;59.69;100964.94;4834871;29;20419;-89
2020/12/13 13:01:44;;;;;;;16.55;5.05;;;;;;;11.81;59.93;100971.66;4850265;29;20177;-89
2020/12/13 13:04:12;;;;;;;16.38;3.75;;;;;;;11.72;59.71;100958.56;4835711;29;20617;-88
2020/12/13 13:09:39;;;;;;;16.75;4.80;;;;;;;11.83;59.59;100958.88;4834015;29;20144;-88
2020/12/13 13:12:06;;;;;;;11.43;4.43;;;;;;;11.58;59.74;100954.72;4837598;29;20033;-89
2020/12/13 13:14:33;;;;;;;11.43;4.50;;;;;;;11.53;60.09;100952.25;4837069;29;20034;-86
2020/12/13 13:17:08;;;;;;;16.17;4.88;;;;;;;11.66;60.68;100947.06;4854677;29;20030;-89
2020/12/13 13:19:34;;;;;;;17.70;4.97;;;;;;;11.84;59.79;100947.09;4906998;23;20484;-88
2020/12/13 13:22:01;;;;;;;;;;;;;;;11.56;61.04;100947.63;4858053;29;20033;-87
2020/12/13 13:24:26;;;;;;;22.27;6.13;;;;;;;11.83;59.87;100948.91;4867123;29;19923;-85
2020/12/13 13:26:53;;;;;;;13.52;5.13;;;;;;;11.86;59.65;100934.34;4866908;29;20034;-84
2020/12/13 13:29:18;;;;;;;16.75;5.90;;;;;;;11.74;59.93;100943.97;4853554;29;20033;-87
2020/12/13 13:31:44;;;;;;;17.20;5.80;;;;;;;11.22;61.46;100947.47;4870265;29;20384;-85
2020/12/13 13:34:09;;;;;;;14.43;6.35;;;;;;;11.57;60.95;100943.97;4868764;29;20029;-84
2020/12/13 13:36:34;;;;;;;23.15;6.82;;;;;;;11.57;60.95;100935.84;4853475;29;20031;-85
2020/12/13 13:38:59;;;;;;;17.48;5.78;;;;;;;11.22;61.46;100938.44;4853774;29;20030;-87
2020/12/13 13:41:34;;;;;;;19.92;8.48;;;;;;;11.70;60.67;100943.25;4869788;29;20361;-84
2020/12/13 13:44:02;;;;;;;16.33;5.82;;;;;;;11.21;61.56;100940.28;4868587;29;20030;-83
2020/12/13 13:46:42;;;;;;;13.75;4.80;;;;;;;11.15;61.77;100937.88;4869706;29;20033;-83
2020/12/13 13:51:37;;;;;;;17.48;5.47;;;;;;;11.07;62.62;100935.53;4869807;29;20178;-83
2020/12/13 13:54:06;;;;;;;11.38;4.18;;;;;;;11.25;61.31;100935.59;4863867;29;20036;-84
2020/12/13 13:56:46;;;;;;;22.58;4.90;;;;;;;11.15;61.53;100936.03;4862439;29;20061;-84
2020/12/13 13:59:13;;;;;;;25.48;5.22;;;;;;;11.46;60.58;100928.25;4846663;29;20121;-83
2020/12/13 14:01:39;;;;;;;17.58;5.07;;;;;;;11.73;60.11;100927.78;4863016;29;20034;-85
2020/12/13 14:04:04;;;;;;;25.60;5.40;;;;;;;11.59;60.76;100931.19;4862883;29;20400;-83
2020/12/13 14:06:52;;;;;;;;;;;;;;;11.77;59.79;100926.69;4846969;29;20079;-85
2020/12/13 14:09:18;;;;;;;18.92;5.72;;;;;;;11.28;60.72;100928.19;4863031;29;19916;-84
2020/12/13 14:11:48;;;;;;;13.88;5.18;;;;;;;11.10;61.53;100926.41;4846126;29;20042;-83
2020/12/13 14:14:13;;;;;;;13.77;5.13;;;;;;;11.08;60.90;100921.06;4846219;29;20034;-87
2020/12/13 14:16:38;;;;;;;15.00;4.50;;;;;;;11.22;60.42;100917.66;4846255;29;20029;-84
2020/12/13 14:19:04;;;;;;;;;;;;;;;11.35;60.36;100913.41;4846907;29;20062;-85
2020/12/13 14:21:33;;;;;;;15.85;4.82;;;;;;;11.41;59.91;100908.63;4846040;29;19916;-83
2020/12/13 14:23:58;;;;;;;11.55;3.95;;;;;;;10.90;61.20;100905.69;4862477;29;20480;-83
2020/12/13 14:26:28;;;;;;;12.98;4.15;;;;;;;10.75;61.26;100904.56;4846040;29;20068;-85
2020/12/13 14:28:53;;;;;;;20.15;4.82;;;;;;;10.77;60.70;100910.81;4845942;29;20037;-85
2020/12/13 14:31:19;;;;;;;17.23;4.13;;;;;;;11.17;60.54;100887.22;4846180;29;20484;-85
2020/12/13 14:33:45;;;;;;;;;;;;;;;11.26;60.31;100899.44;4846399;29;20492;-85
2020/12/13 14:36:10;;;;;;;14.65;4.72;;;;;;;10.86;61.58;100895.97;4845991;29;20286;-85
2020/12/13 14:38:36;;;;;;;14.05;5.28;;;;;;;11.26;60.16;100886.78;4862856;29;20048;-88
2020/12/13 14:41:04;;;;;;;17.02;4.25;;;;;;;11.12;60.94;100884.72;4847240;29;20037;-85
2020/12/13 14:43:29;;;;;;;27.40;6.68;;;;;;;10.91;60.50;100892.06;4841829;29;20495;-89
2020/12/13 14:45:54;;;;;;;17.60;4.97;;;;;;;11.29;60.10;100883.91;4828352;29;20030;-90
2020/12/13 14:48:19;;;;;;;15.25;3.90;;;;;;;11.05;60.05;100883.31;4843465;29;20071;-89
2020/12/13 14:50:45;;;;;;;13.83;4.97;;;;;;;11.21;59.91;100879.84;4844217;29;20025;-88
2020/12/13 14:53:11;;;;;;;10.77;3.17;;;;;;;11.14;59.89;100879.25;4827165;29;20298;-86
2020/12/13 14:55:36;;;;;;;;;;;;;;;11.09;59.56;100868.66;4826790;29;20457;-86
2020/12/13 14:58:01;;;;;;;17.77;4.80;;;;;;;11.45;59.14;100872.31;4840542;29;19923;-86
2020/12/13 15:00:27;;;;;;;16.17;4.40;;;;;;;10.97;59.98;100863.84;4840012;29;20286;-87
2020/12/13 15:02:52;;;;;;;;;;;;;;;11.11;60.43;100865.84;4824708;29;20029;-87
2020/12/13 15:05:17;;;;;;;16.15;4.10;;;;;;;10.96;60.39;100865.69;4823734;29;20342;-86
2020/12/13 15:07:42;;;;;;;15.27;4.07;;;;;;;11.64;59.32;100862.28;4823538;29;20552;-86
2020/12/13 15:10:08;;;;;;;;;;;;;;;11.15;59.62;100865.63;4824095;29;20441;-87
2020/12/13 15:12:34;;;;;;;15.02;4.63;;;;;;;10.83;61.18;100859.09;4842329;29;19917;-87
2020/12/13 15:15:14;;;;;;;15.95;4.57;;;;;;;10.77;60.50;100868.38;4827385;29;20034;-86
2020/12/13 15:17:40;;;;;;;14.27;5.53;;;;;;;11.43;58.99;100853.41;4827260;29;20121;-88
2020/12/13 15:20:06;;;;;;;22.17;5.55;;;;;;;11.05;59.81;100858.03;4843451;29;20057;-88
2020/12/13 15:22:32;;;;;;;18.20;4.03;;;;;;;10.59;61.17;100861.16;4843552;29;20030;-87
2020/12/13 15:24:57;;;;;;;;;;;;;;;10.43;61.73;100859.19;4827571;29;20026;-88
2020/12/13 15:27:22;;;;;;;14.35;5.60;;;;;;;11.29;59.97;100858.66;4827013;29;19969;-87
2020/12/13 15:29:48;;;;;;;;;;;;;;;11.15;59.80;100849.38;4827500;29;20054;-88
2020/12/13 15:32:13;;;;;;;14.45;5.25;;;;;;;11.10;60.00;100851.44;4826760;29;19916;-88
2020/12/13 15:34:39;;;;;;;;;;;;;;;10.63;61.04;100866.34;4827523;29;20030;-88
2020/12/13 15:37:04;;;;;;;11.48;6.15;;;;;;;10.92;60.02;100842.41;4826771;29;20010;-87
2020/12/13 15:39:30;;;;;;;23.20;7.60;;;;;;;11.07;60.26;100851.59;4826964;29;20456;-88
2020/12/13 15:41:56;;;;;;;;;;;;;;;10.88;60.76;100851.63;4827046;29;20618;-88
2020/12/13 15:44:21;;;;;;;27.33;5.60;;;;;;;10.92;61.06;100855.94;4826649;29;20185;-88
2020/12/13 15:46:46;;;;;;;16.17;5.43;;;;;;;10.49;62.03;100860.69;4826917;29;20345;-87
2020/12/13 15:49:12;;;;;;;9.98;4.35;;;;;;;10.55;61.51;100855.03;4827130;29;20041;-87
2020/12/13 15:51:37;;;;;;;16.65;4.90;;;;;;;10.67;61.52;100848.13;4842496;29;20030;-87
2020/12/13 15:54:06;;;;;;;;;;;;;;;10.71;61.20;100838.06;4827195;29;20120;-87
2020/12/13 15:56:32;;;;;;;14.02;4.63;;;;;;;10.48;61.48;100847.25;4842876;29;20370;-88
2020/12/13 15:58:58;;;;;;;18.73;8.05;;;;;;;10.77;60.69;100835.03;4826877;29;20086;-88
2020/12/13 16:01:24;;;;;;;24.10;7.05;;;;;;;10.67;61.18;100829.19;4826778;29;20186;-87
2020/12/13 16:03:51;;;;;;;32.53;10.48;;;;;;;10.66;61.46;100829.25;4828796;29;20026;-88
2020/12/13 16:06:19;;;;;;;20.40;6.75;;;;;;;10.32;62.40;100842.53;4828967;29;20042;-88
2020/12/13 16:08:44;;;;;;;19.73;5.65;;;;;;;10.20;62.98;100826.88;4842669;29;20033;-88
2020/12/13 16:11:17;;;;;;;17.02;6.45;;;;;;;10.63;62.08;100820.34;4843176;29;20033;-88
2020/12/13 16:13:42;;;;;;;22.50;7.78;;;;;;;10.63;62.00;100817.66;4826496;29;20034;-86
2020/12/13 16:16:08;;;;;;;21.05;6.20;;;;;;;10.59;61.89;100817.88;4827255;29;20077;-87
2020/12/13 16:18:33;;;;;;;17.50;6.10;;;;;;;10.26;62.75;100827.47;4828195;29;20160;-87
2020/12/13 16:20:59;;;;;;;14.40;6.57;;;;;;;10.58;62.44;100811.59;4827049;29;20465;-85
2020/12/13 16:23:24;;;;;;;19.55;7.18;;;;;;;10.51;61.96;100818.25;4827848;29;20041;-87
2020/12/13 16:25:54;;;;;;;19.83;7.82;;;;;;;10.79;60.82;100816.91;4832887;29;20142;-87
2020/12/13 16:28:20;;;;;;;20.95;6.75;;;;;;;10.63;61.16;100804.13;4827313;29;20434;-86
2020/12/13 16:30:46;;;;;;;18.70;5.53;;;;;;;10.23;62.28;100811.38;4827299;29;20472;-89
2020/12/13 16:33:11;;;;;;;;;;;;;;;10.66;60.45;100804.91;4827459;29;20042;-88
2020/12/13 16:35:37;;;;;;;15.55;4.35;;;;;;;10.13;62.08;100798.38;4853531;29;19927;-88
2020/12/13 16:40:30;;;;;;;16.50;5.28;;;;;;;10.58;60.01;100792.66;4848490;29;20524;-87
2020/12/13 16:45:32;;;;;;;14.57;4.32;;;;;;;10.42;60.44;100788.94;4847361;29;20094;-87
2020/12/13 16:48:08;;;;;;;15.95;4.07;;;;;;;10.61;59.67;100778.09;4850883;29;20022;-86
2020/12/13 16:51:00;;;;;;;17.58;4.43;;;;;;;10.67;60.29;100774.22;4849688;29;20030;-84
2020/12/13 16:54:10;;;;;;;13.23;3.88;;;;;;;10.16;60.94;100777.50;4849386;29;20030;-85